Pagrindinis puslapis
METAR-TAF:

METAR-TAF

Oro uostai :

Lubbock, Teksasas, Jungtinės Amerikos Valstijos

platuma: 33-40-03N, ilguma: 101-49-17W, Aukštis: 1000 m

Dabartinis oras

Ataskaita buvo paskelbta 57 minutes, ne 02:53 UTC
Vėjas 6 kt iš Pietryčių
Temperatūra 28°C
Drėgmė 40%
Slėgis 1016 hPa
Matomumas: 16.1 km
Su prošvaistėmis ne aukštis 26000 ft

METAR: KLBB 160253Z 14006KT 10SM BKN260 28/13 A3001 RMK AO2 SLP105 BKN LYR THN T02830133 53013

Laikas: 22:50 (03:50 UTC)

Prognozė

Ataskaita buvo paskelbta 4 valandos ir 23 minutes, ne 23:27 UTC
Prognozė galioja nuo 16 metu 00 UTC su 16 metu 24 UTC
Vėjas 15 kt iš Pietų
Matomumas: 10 km
Mažai debesys ne aukštis 8000 ft
Išsisklaidę debesys ne aukštis 25000 ft
Nuo 16 metu 0100 UTC
Vėjas 11 kt iš Pietų
Matomumas: 10 km
Išsisklaidę debesys ne aukštis 25000 ft

TAF: KLBB 152327Z 1600/1624 17015KT P6SM FEW080 SCT250 FM160100 18011KT P6SM SCT250

Orai ataskaitas ir orų prognozės (METAR, TAF).

turimą stotys yra geltonos ir raudonos taškus žemėlapyje.

Perkelti pele per norėdami pamatyti stoties vardą.

Tada spustelėkite, norėdami matyti oro stebėjimo ir prognozės.

Norėdami pakeisti žemėlapį: spustelėkite ant žalios mygtukų su juodo kryžiaus žemyn,; žalią mygtuką su brūkšneliu, jei norite nutolinti; arba žalių rodyklių gretimoms žemėlapius.


METAR-TAF: